Accueil
METAR-TAF:

METAR-TAF

Aéroports :

Peer, Belgique

Base aérienne de Kleine-Brogel

latitude: 51-10N, longitude: 005-28E, altitude: 55 m

Observation

Le bulletin a été fait il y a 40 minutes, à 11:55 UTC
Vent 7 kt de sud
Température 25°C
Humidité 44%
Pression 1011 hPa
Visibilité 10 km ou plus

METAR: EBBL 221155Z AUTO 19007KT 9999 SCT053/// BKN130/// 25/12 Q1011 BLU

Heure: 14:35 (12:35 UTC)

Prévision

Le bulletin a été fait il y a 24 heures et 54 minutes, à 11:41 UTC
Prévision valable du 21 à 13 UTC au 21 à 22 UTC
Vent 5 kt de sud
Visibilité 10 km ou plus
Quelques nuages à une hauteur de 5000 ft
Evoluant progressivement
du 21 à 13 UTC au 21 à 15 UTC
Vent 5 kt de est/sud-est

TAF: EBBL 211141Z 2113/2122 18005KT 9999 FEW050 BECMG 2113/2115 12005KT

Observations et prévisions météorologiques de plus de 4000 aéroports (messages METAR et TAF).

Les stations disponibles sont représentées par des disques jaunes et rouges sur la carte.

Passer la souris dessus pour voir le nom de la station.

Cliquer dessus pour voir les observations et prévisions météorologiques.

Pour changer de carte: cliquez sur les boutons verts avec une croix noire pour zoomer, sur le bouton vert avec un tiret pour effectuer un zoom arrière, ou sur les flèches vertes pour les cartes adjacentes.


METAR-TAF: